sensor_id;sensor_type;location;lat;lon;timestamp;pressure;altitude;pressure_sealevel;temperature;humidity
62703;BME280;66022;50.448;18.122;2023-05-14T00:01:22;99617.24;;;12.41;54.98
62703;BME280;66022;50.448;18.122;2023-05-14T00:05:34;99615.01;;;12.39;54.77
62703;BME280;66022;50.448;18.122;2023-05-14T00:09:46;99612.31;;;12.36;55.11
62703;BME280;66022;50.448;18.122;2023-05-14T00:13:58;99608.75;;;12.33;55.06
62703;BME280;66022;50.448;18.122;2023-05-14T00:18:10;99606.16;;;12.29;56.40
62703;BME280;66022;50.448;18.122;2023-05-14T00:22:22;99603.67;;;12.27;55.22
62703;BME280;66022;50.448;18.122;2023-05-14T00:26:34;99601.39;;;12.20;58.80
62703;BME280;66022;50.448;18.122;2023-05-14T00:30:46;99598.21;;;12.17;55.66
62703;BME280;66022;50.448;18.122;2023-05-14T00:34:58;99595.83;;;12.13;55.84
62703;BME280;66022;50.448;18.122;2023-05-14T00:39:10;99594.16;;;12.08;55.92
62703;BME280;66022;50.448;18.122;2023-05-14T00:43:22;99591.88;;;12.05;55.84
62703;BME280;66022;50.448;18.122;2023-05-14T00:47:34;99589.92;;;11.99;56.93
62703;BME280;66022;50.448;18.122;2023-05-14T00:51:46;99587.72;;;11.96;56.15
62703;BME280;66022;50.448;18.122;2023-05-14T00:55:58;99585.78;;;11.92;56.30
62703;BME280;66022;50.448;18.122;2023-05-14T01:00:10;99584.55;;;11.89;56.49
62703;BME280;66022;50.448;18.122;2023-05-14T01:04:22;99582.75;;;11.86;56.55
62703;BME280;66022;50.448;18.122;2023-05-14T01:16:58;99582.05;;;11.73;59.76
62703;BME280;66022;50.448;18.122;2023-05-14T01:25:22;99583.89;;;11.70;57.05
62703;BME280;66022;50.448;18.122;2023-05-14T01:29:35;99586.05;;;11.66;58.03
62703;BME280;66022;50.448;18.122;2023-05-14T01:33:46;99587.84;;;11.61;58.51
62703;BME280;66022;50.448;18.122;2023-05-14T01:37:58;99591.05;;;11.53;60.02
62703;BME280;66022;50.448;18.122;2023-05-14T01:42:10;99594.33;;;11.45;59.53
62703;BME280;66022;50.448;18.122;2023-05-14T01:46:22;99597.92;;;11.34;63.89
62703;BME280;66022;50.448;18.122;2023-05-14T01:50:34;99600.70;;;11.25;60.50
62703;BME280;66022;50.448;18.122;2023-05-14T01:54:46;99601.39;;;11.16;60.64
62703;BME280;66022;50.448;18.122;2023-05-14T01:58:58;99601.71;;;11.03;61.86
62703;BME280;66022;50.448;18.122;2023-05-14T02:03:10;99600.34;;;10.95;61.60
62703;BME280;66022;50.448;18.122;2023-05-14T02:07:24;99598.33;;;10.85;64.56
62703;BME280;66022;50.448;18.122;2023-05-14T02:11:34;99596.56;;;10.76;62.26
62703;BME280;66022;50.448;18.122;2023-05-14T02:15:46;99594.89;;;10.65;62.30
62703;BME280;66022;50.448;18.122;2023-05-14T02:19:58;99593.39;;;10.54;63.10
62703;BME280;66022;50.448;18.122;2023-05-14T02:24:10;99590.69;;;10.45;63.01
62703;BME280;66022;50.448;18.122;2023-05-14T02:28:22;99588.23;;;10.35;64.48
62703;BME280;66022;50.448;18.122;2023-05-14T02:32:34;99584.72;;;10.28;63.30
62703;BME280;66022;50.448;18.122;2023-05-14T02:36:46;99581.45;;;10.17;70.21
62703;BME280;66022;50.448;18.122;2023-05-14T02:40:58;99580.10;;;10.12;64.07
62703;BME280;66022;50.448;18.122;2023-05-14T02:45:10;99577.93;;;10.06;64.50
62703;BME280;66022;50.448;18.122;2023-05-14T02:49:22;99575.98;;;9.96;64.82
62703;BME280;66022;50.448;18.122;2023-05-14T02:53:34;99574.66;;;9.88;64.70
62703;BME280;66022;50.448;18.122;2023-05-14T02:57:46;99574.08;;;9.81;67.20
62703;BME280;66022;50.448;18.122;2023-05-14T03:01:58;99571.80;;;9.77;64.48
62703;BME280;66022;50.448;18.122;2023-05-14T03:06:10;99570.07;;;9.75;64.37
62703;BME280;66022;50.448;18.122;2023-05-14T03:10:22;99567.58;;;9.72;65.57
62703;BME280;66022;50.448;18.122;2023-05-14T03:14:34;99566.11;;;9.70;64.52
62703;BME280;66022;50.448;18.122;2023-05-14T03:18:46;99565.25;;;9.70;65.35
62703;BME280;66022;50.448;18.122;2023-05-14T03:22:58;99563.37;;;9.73;64.66
62703;BME280;66022;50.448;18.122;2023-05-14T03:27:10;99560.60;;;9.74;68.79
62703;BME280;66022;50.448;18.122;2023-05-14T03:31:22;99557.61;;;9.77;66.37
62703;BME280;66022;50.448;18.122;2023-05-14T03:35:34;99552.37;;;9.80;66.15
62703;BME280;66022;50.448;18.122;2023-05-14T03:39:46;99546.19;;;9.83;66.67
62703;BME280;66022;50.448;18.122;2023-05-14T03:43:58;99540.94;;;9.88;65.10
62703;BME280;66022;50.448;18.122;2023-05-14T03:48:10;99534.64;;;9.92;66.04
62703;BME280;66022;50.448;18.122;2023-05-14T03:52:22;99529.00;;;9.99;65.05
62703;BME280;66022;50.448;18.122;2023-05-14T03:56:34;99524.71;;;10.05;69.57
62703;BME280;66022;50.448;18.122;2023-05-14T04:00:46;99521.11;;;10.15;64.66
62703;BME280;66022;50.448;18.122;2023-05-14T04:04:58;99518.30;;;10.23;64.07
62703;BME280;66022;50.448;18.122;2023-05-14T04:09:10;99518.33;;;10.30;64.56
62703;BME280;66022;50.448;18.122;2023-05-14T04:13:22;99519.51;;;10.38;63.45
62703;BME280;66022;50.448;18.122;2023-05-14T04:17:34;99519.48;;;10.44;65.81
62703;BME280;66022;50.448;18.122;2023-05-14T04:21:46;99519.30;;;10.50;64.46
62703;BME280;66022;50.448;18.122;2023-05-14T04:25:58;99517.91;;;10.56;63.00
62703;BME280;66022;50.448;18.122;2023-05-14T04:30:10;99519.47;;;10.68;62.97
62703;BME280;66022;50.448;18.122;2023-05-14T04:34:22;99521.75;;;10.85;61.61
62703;BME280;66022;50.448;18.122;2023-05-14T04:38:35;99524.49;;;11.09;60.96
62703;BME280;66022;50.448;18.122;2023-05-14T04:42:46;99524.70;;;11.73;54.20
62703;BME280;66022;50.448;18.122;2023-05-14T04:46:58;99526.08;;;12.89;49.35
62703;BME280;66022;50.448;18.122;2023-05-14T04:51:10;99525.06;;;14.38;43.32
62703;BME280;66022;50.448;18.122;2023-05-14T04:55:22;99522.94;;;15.88;40.58
62703;BME280;66022;50.448;18.122;2023-05-14T04:59:34;99519.79;;;17.27;39.02
62703;BME280;66022;50.448;18.122;2023-05-14T05:03:46;99515.25;;;18.62;37.33
62703;BME280;66022;50.448;18.122;2023-05-14T05:07:58;99511.94;;;19.79;36.93
62703;BME280;66022;50.448;18.122;2023-05-14T05:12:10;99508.14;;;20.91;36.78
62703;BME280;66022;50.448;18.122;2023-05-14T05:16:22;99503.44;;;21.82;33.81
62703;BME280;66022;50.448;18.122;2023-05-14T05:20:34;99501.20;;;22.75;34.40
62703;BME280;66022;50.448;18.122;2023-05-14T05:24:46;99499.90;;;23.53;33.85
62703;BME280;66022;50.448;18.122;2023-05-14T05:28:58;99498.55;;;23.94;34.60
62703;BME280;66022;50.448;18.122;2023-05-14T05:33:10;99496.11;;;24.43;34.52
62703;BME280;66022;50.448;18.122;2023-05-14T05:37:22;99492.57;;;24.75;35.24
62703;BME280;66022;50.448;18.122;2023-05-14T05:41:34;99488.75;;;25.13;34.23
62703;BME280;66022;50.448;18.122;2023-05-14T05:45:46;99485.17;;;25.50;33.99
62703;BME280;66022;50.448;18.122;2023-05-14T05:49:58;99483.23;;;25.81;34.80
62703;BME280;66022;50.448;18.122;2023-05-14T05:54:10;99481.95;;;26.03;34.96
62703;BME280;66022;50.448;18.122;2023-05-14T05:58:22;99481.25;;;26.15;35.12
62703;BME280;66022;50.448;18.122;2023-05-14T06:02:34;99482.95;;;26.29;35.66
62703;BME280;66022;50.448;18.122;2023-05-14T06:06:46;99485.57;;;26.18;33.99
62703;BME280;66022;50.448;18.122;2023-05-14T06:10:58;99488.45;;;26.09;35.90
62703;BME280;66022;50.448;18.122;2023-05-14T06:15:11;99489.51;;;25.90;36.86
62703;BME280;66022;50.448;18.122;2023-05-14T06:19:22;99490.33;;;25.54;37.79
62703;BME280;66022;50.448;18.122;2023-05-14T06:23:35;99490.34;;;25.24;38.20
62703;BME280;66022;50.448;18.122;2023-05-14T06:27:46;99489.74;;;24.87;39.74
62703;BME280;66022;50.448;18.122;2023-05-14T06:32:02;99487.87;;;24.52;40.30
62703;BME280;66022;50.448;18.122;2023-05-14T06:36:10;99486.25;;;24.19;40.58
62703;BME280;66022;50.448;18.122;2023-05-14T06:40:22;99484.49;;;23.89;41.06
62703;BME280;66022;50.448;18.122;2023-05-14T06:44:34;99484.69;;;23.61;40.84
62703;BME280;66022;50.448;18.122;2023-05-14T06:48:46;99484.94;;;23.22;42.21
62703;BME280;66022;50.448;18.122;2023-05-14T06:52:58;99484.38;;;22.97;42.24
62703;BME280;66022;50.448;18.122;2023-05-14T06:57:10;99485.58;;;22.73;43.33
62703;BME280;66022;50.448;18.122;2023-05-14T07:01:22;99485.02;;;22.59;42.80
62703;BME280;66022;50.448;18.122;2023-05-14T07:05:34;99485.58;;;22.41;43.40
62703;BME280;66022;50.448;18.122;2023-05-14T07:09:46;99486.30;;;22.15;43.61
62703;BME280;66022;50.448;18.122;2023-05-14T07:13:58;99485.66;;;21.94;44.57
62703;BME280;66022;50.448;18.122;2023-05-14T07:18:10;99484.41;;;21.85;44.48
62703;BME280;66022;50.448;18.122;2023-05-14T07:22:22;99482.22;;;21.83;44.60
62703;BME280;66022;50.448;18.122;2023-05-14T07:26:34;99480.39;;;21.76;44.47
62703;BME280;66022;50.448;18.122;2023-05-14T07:30:46;99477.91;;;21.77;44.42
62703;BME280;66022;50.448;18.122;2023-05-14T07:34:58;99475.78;;;21.79;43.89
62703;BME280;66022;50.448;18.122;2023-05-14T07:39:10;99474.91;;;21.82;43.66
62703;BME280;66022;50.448;18.122;2023-05-14T07:43:22;99473.02;;;21.95;43.08
62703;BME280;66022;50.448;18.122;2023-05-14T07:47:34;99472.31;;;22.06;43.42
62703;BME280;66022;50.448;18.122;2023-05-14T07:51:47;99473.10;;;22.20;42.57
62703;BME280;66022;50.448;18.122;2023-05-14T07:55:59;99472.41;;;22.35;42.23
62703;BME280;66022;50.448;18.122;2023-05-14T08:00:11;99471.81;;;22.46;42.26
62703;BME280;66022;50.448;18.122;2023-05-14T08:04:23;99468.18;;;22.57;41.46
62703;BME280;66022;50.448;18.122;2023-05-14T08:08:34;99464.01;;;22.56;42.51
62703;BME280;66022;50.448;18.122;2023-05-14T08:12:47;99459.43;;;22.59;43.01
62703;BME280;66022;50.448;18.122;2023-05-14T08:16:58;99455.39;;;22.47;43.51
62703;BME280;66022;50.448;18.122;2023-05-14T08:21:10;99452.01;;;22.38;44.55
62703;BME280;66022;50.448;18.122;2023-05-14T08:25:25;99448.99;;;22.28;44.54
62703;BME280;66022;50.448;18.122;2023-05-14T08:29:34;99447.25;;;22.12;44.00
62703;BME280;66022;50.448;18.122;2023-05-14T08:33:47;99443.59;;;22.00;44.90
62703;BME280;66022;50.448;18.122;2023-05-14T08:37:59;99440.16;;;21.88;44.55
62703;BME280;66022;50.448;18.122;2023-05-14T08:42:11;99436.13;;;21.78;44.47
62703;BME280;66022;50.448;18.122;2023-05-14T08:46:23;99432.98;;;21.69;43.63
62703;BME280;66022;50.448;18.122;2023-05-14T08:50:34;99430.28;;;21.69;44.76
62703;BME280;66022;50.448;18.122;2023-05-14T08:54:47;99426.97;;;21.71;43.47
62703;BME280;66022;50.448;18.122;2023-05-14T08:58:59;99424.03;;;21.66;44.00
62703;BME280;66022;50.448;18.122;2023-05-14T09:03:11;99419.93;;;21.70;44.30
62703;BME280;66022;50.448;18.122;2023-05-14T09:07:23;99416.05;;;21.73;44.45
62703;BME280;66022;50.448;18.122;2023-05-14T09:11:39;99410.72;;;21.90;42.69
62703;BME280;66022;50.448;18.122;2023-05-14T09:15:47;99404.33;;;22.12;42.81
62703;BME280;66022;50.448;18.122;2023-05-14T09:19:59;99398.13;;;22.35;41.65
62703;BME280;66022;50.448;18.122;2023-05-14T09:28:22;99387.80;;;22.84;41.32
62703;BME280;66022;50.448;18.122;2023-05-14T09:32:35;99384.19;;;23.08;40.75
62703;BME280;66022;50.448;18.122;2023-05-14T09:36:46;99380.08;;;23.22;38.22
62703;BME280;66022;50.448;18.122;2023-05-14T09:40:59;99375.00;;;23.42;39.67
62703;BME280;66022;50.448;18.122;2023-05-14T09:45:10;99370.67;;;23.62;38.65
62703;BME280;66022;50.448;18.122;2023-05-14T09:49:23;99366.96;;;23.78;39.09
62703;BME280;66022;50.448;18.122;2023-05-14T09:53:34;99363.87;;;23.96;38.78
62703;BME280;66022;50.448;18.122;2023-05-14T09:57:46;99359.03;;;24.03;39.33
62703;BME280;66022;50.448;18.122;2023-05-14T10:01:59;99354.42;;;24.07;38.64
62703;BME280;66022;50.448;18.122;2023-05-14T10:06:11;99349.49;;;24.05;40.55
62703;BME280;66022;50.448;18.122;2023-05-14T10:10:23;99344.67;;;24.03;40.19
62703;BME280;66022;50.448;18.122;2023-05-14T10:14:36;99340.73;;;24.03;38.48
62703;BME280;66022;50.448;18.122;2023-05-14T10:18:49;99337.25;;;23.92;39.40
62703;BME280;66022;50.448;18.122;2023-05-14T10:22:59;99332.22;;;23.93;39.77
62703;BME280;66022;50.448;18.122;2023-05-14T10:27:11;99328.14;;;23.90;39.90
62703;BME280;66022;50.448;18.122;2023-05-14T10:31:23;99324.63;;;23.84;39.97
62703;BME280;66022;50.448;18.122;2023-05-14T10:43:59;99315.53;;;23.59;40.22
62703;BME280;66022;50.448;18.122;2023-05-14T10:48:11;99312.54;;;23.55;41.09
62703;BME280;66022;50.448;18.122;2023-05-14T10:52:23;99310.88;;;23.45;41.39
62703;BME280;66022;50.448;18.122;2023-05-14T10:56:35;99308.12;;;23.28;39.57
62703;BME280;66022;50.448;18.122;2023-05-14T11:00:47;99303.59;;;23.25;40.24
62703;BME280;66022;50.448;18.122;2023-05-14T11:04:59;99302.58;;;23.21;42.02
62703;BME280;66022;50.448;18.122;2023-05-14T11:09:12;99302.47;;;23.06;41.24
62703;BME280;66022;50.448;18.122;2023-05-14T11:13:23;99301.03;;;22.95;41.68
62703;BME280;66022;50.448;18.122;2023-05-14T11:17:35;99299.16;;;22.83;42.33
62703;BME280;66022;50.448;18.122;2023-05-14T11:21:47;99297.33;;;22.70;42.83
62703;BME280;66022;50.448;18.122;2023-05-14T11:25:59;99293.68;;;22.59;42.79
62703;BME280;66022;50.448;18.122;2023-05-14T11:30:11;99291.74;;;22.47;42.88
62703;BME280;66022;50.448;18.122;2023-05-14T11:34:23;99289.86;;;22.36;42.50
62703;BME280;66022;50.448;18.122;2023-05-14T11:38:35;99288.44;;;22.25;43.51
62703;BME280;66022;50.448;18.122;2023-05-14T11:42:48;99286.08;;;22.23;42.97
62703;BME280;66022;50.448;18.122;2023-05-14T11:46:59;99281.09;;;22.14;43.18
62703;BME280;66022;50.448;18.122;2023-05-14T11:51:11;99276.65;;;22.12;42.78
62703;BME280;66022;50.448;18.122;2023-05-14T11:55:23;99272.42;;;22.10;42.50
62703;BME280;66022;50.448;18.122;2023-05-14T11:59:35;99267.97;;;22.00;43.52
62703;BME280;66022;50.448;18.122;2023-05-14T12:03:47;99264.84;;;21.96;44.00
62703;BME280;66022;50.448;18.122;2023-05-14T12:07:59;99260.03;;;21.95;43.06
62703;BME280;66022;50.448;18.122;2023-05-14T12:12:11;99257.69;;;21.99;42.36
62703;BME280;66022;50.448;18.122;2023-05-14T12:16:23;99254.55;;;21.99;41.82
62703;BME280;66022;50.448;18.122;2023-05-14T12:20:35;99252.06;;;22.00;42.87
62703;BME280;66022;50.448;18.122;2023-05-14T12:28:59;99245.10;;;21.86;43.00
62703;BME280;66022;50.448;18.122;2023-05-14T12:33:13;99241.74;;;21.76;42.03
62703;BME280;66022;50.448;18.122;2023-05-14T12:37:23;99238.84;;;21.63;42.81
62703;BME280;66022;50.448;18.122;2023-05-14T12:41:35;99235.39;;;21.56;43.39
62703;BME280;66022;50.448;18.122;2023-05-14T12:45:47;99231.59;;;21.49;41.83
62703;BME280;66022;50.448;18.122;2023-05-14T12:49:59;99227.55;;;21.43;43.15
62703;BME280;66022;50.448;18.122;2023-05-14T12:54:11;99224.66;;;21.40;42.39
62703;BME280;66022;50.448;18.122;2023-05-14T12:58:23;99222.34;;;21.33;42.25
62703;BME280;66022;50.448;18.122;2023-05-14T13:02:35;99218.97;;;21.28;41.48
62703;BME280;66022;50.448;18.122;2023-05-14T13:06:47;99216.75;;;21.16;39.70
62703;BME280;66022;50.448;18.122;2023-05-14T13:10:59;99214.20;;;21.09;40.19
62703;BME280;66022;50.448;18.122;2023-05-14T13:15:11;99211.67;;;21.00;40.33
62703;BME280;66022;50.448;18.122;2023-05-14T13:19:23;99208.23;;;20.87;41.71
62703;BME280;66022;50.448;18.122;2023-05-14T13:23:35;99204.46;;;20.80;41.59
62703;BME280;66022;50.448;18.122;2023-05-14T13:27:47;99201.48;;;20.70;42.34
62703;BME280;66022;50.448;18.122;2023-05-14T13:31:59;99197.53;;;20.63;42.79
62703;BME280;66022;50.448;18.122;2023-05-14T13:36:12;99192.46;;;20.56;42.68
62703;BME280;66022;50.448;18.122;2023-05-14T13:40:23;99187.66;;;20.48;43.30
62703;BME280;66022;50.448;18.122;2023-05-14T13:44:35;99183.07;;;20.43;43.19
62703;BME280;66022;50.448;18.122;2023-05-14T13:48:47;99180.38;;;20.34;42.95
62703;BME280;66022;50.448;18.122;2023-05-14T13:52:59;99177.19;;;20.30;44.66
62703;BME280;66022;50.448;18.122;2023-05-14T13:57:11;99171.90;;;20.25;43.64
62703;BME280;66022;50.448;18.122;2023-05-14T14:01:23;99167.38;;;20.24;43.88
62703;BME280;66022;50.448;18.122;2023-05-14T14:05:35;99161.90;;;20.21;44.36
62703;BME280;66022;50.448;18.122;2023-05-14T14:09:47;99156.55;;;20.18;44.43
62703;BME280;66022;50.448;18.122;2023-05-14T14:13:59;99153.38;;;20.16;44.54
62703;BME280;66022;50.448;18.122;2023-05-14T14:18:11;99150.39;;;20.12;43.93
62703;BME280;66022;50.448;18.122;2023-05-14T14:22:23;99147.94;;;20.10;45.27
62703;BME280;66022;50.448;18.122;2023-05-14T14:26:35;99146.41;;;20.04;42.68
62703;BME280;66022;50.448;18.122;2023-05-14T14:30:47;99142.43;;;20.02;43.99
62703;BME280;66022;50.448;18.122;2023-05-14T14:34:59;99139.83;;;19.99;44.09
62703;BME280;66022;50.448;18.122;2023-05-14T14:39:11;99136.17;;;19.95;44.24
62703;BME280;66022;50.448;18.122;2023-05-14T14:43:23;99129.19;;;19.92;44.35
62703;BME280;66022;50.448;18.122;2023-05-14T14:47:35;99122.96;;;19.87;44.28
62703;BME280;66022;50.448;18.122;2023-05-14T14:51:48;99116.13;;;19.83;44.95
62703;BME280;66022;50.448;18.122;2023-05-14T14:55:59;99109.48;;;19.80;45.35
62703;BME280;66022;50.448;18.122;2023-05-14T15:00:11;99102.49;;;19.77;43.96
62703;BME280;66022;50.448;18.122;2023-05-14T15:04:23;99095.94;;;19.76;44.45
62703;BME280;66022;50.448;18.122;2023-05-14T15:08:35;99088.01;;;19.70;43.54
62703;BME280;66022;50.448;18.122;2023-05-14T15:12:47;99079.77;;;19.67;43.68
62703;BME280;66022;50.448;18.122;2023-05-14T15:16:59;99073.64;;;19.61;43.78
62703;BME280;66022;50.448;18.122;2023-05-14T15:21:11;99067.91;;;19.59;43.71
62703;BME280;66022;50.448;18.122;2023-05-14T15:25:23;99064.40;;;19.56;44.76
62703;BME280;66022;50.448;18.122;2023-05-14T15:29:35;99059.82;;;19.52;44.35
62703;BME280;66022;50.448;18.122;2023-05-14T15:33:47;99054.13;;;19.50;44.38
62703;BME280;66022;50.448;18.122;2023-05-14T15:37:59;99049.34;;;19.46;44.82
62703;BME280;66022;50.448;18.122;2023-05-14T15:42:11;99045.61;;;19.44;45.66
62703;BME280;66022;50.448;18.122;2023-05-14T15:46:23;99042.13;;;19.40;46.00
62703;BME280;66022;50.448;18.122;2023-05-14T15:50:35;99038.67;;;19.38;46.68
62703;BME280;66022;50.448;18.122;2023-05-14T15:54:47;99034.31;;;19.36;47.17
62703;BME280;66022;50.448;18.122;2023-05-14T15:58:59;99030.40;;;19.30;47.52
62703;BME280;66022;50.448;18.122;2023-05-14T16:03:11;99026.78;;;19.28;46.59
62703;BME280;66022;50.448;18.122;2023-05-14T16:07:23;99023.58;;;19.23;47.27
62703;BME280;66022;50.448;18.122;2023-05-14T16:11:35;99018.58;;;19.20;47.38
62703;BME280;66022;50.448;18.122;2023-05-14T16:15:47;99013.57;;;19.17;47.35
62703;BME280;66022;50.448;18.122;2023-05-14T16:19:59;99008.14;;;19.13;47.32
62703;BME280;66022;50.448;18.122;2023-05-14T16:24:11;99001.14;;;19.09;47.55
62703;BME280;66022;50.448;18.122;2023-05-14T16:28:23;98995.76;;;19.03;47.58
62703;BME280;66022;50.448;18.122;2023-05-14T16:32:35;98990.36;;;19.00;47.74
62703;BME280;66022;50.448;18.122;2023-05-14T16:36:47;98985.57;;;18.92;48.46
62703;BME280;66022;50.448;18.122;2023-05-14T16:40:59;98981.94;;;18.87;48.07
62703;BME280;66022;50.448;18.122;2023-05-14T16:45:11;98978.02;;;18.81;48.50
62703;BME280;66022;50.448;18.122;2023-05-14T16:49:23;98974.41;;;18.73;49.47
62703;BME280;66022;50.448;18.122;2023-05-14T16:53:35;98973.61;;;18.63;50.35
62703;BME280;66022;50.448;18.122;2023-05-14T16:57:47;98979.74;;;18.51;52.16
62703;BME280;66022;50.448;18.122;2023-05-14T17:01:59;98988.59;;;18.37;54.14
62703;BME280;66022;50.448;18.122;2023-05-14T17:06:11;98988.82;;;18.21;58.51
62703;BME280;66022;50.448;18.122;2023-05-14T17:10:23;98982.01;;;18.03;60.42
62703;BME280;66022;50.448;18.122;2023-05-14T17:14:35;98975.34;;;17.83;62.35
62703;BME280;66022;50.448;18.122;2023-05-14T17:18:47;98967.24;;;17.56;65.63
62703;BME280;66022;50.448;18.122;2023-05-14T17:22:59;98960.05;;;17.34;66.11
62703;BME280;66022;50.448;18.122;2023-05-14T17:27:11;98954.06;;;17.12;71.45
62703;BME280;66022;50.448;18.122;2023-05-14T17:31:23;98947.57;;;16.95;67.48
62703;BME280;66022;50.448;18.122;2023-05-14T17:35:35;98941.60;;;16.80;66.31
62703;BME280;66022;50.448;18.122;2023-05-14T17:39:47;98936.88;;;16.67;67.75
62703;BME280;66022;50.448;18.122;2023-05-14T17:43:59;98933.49;;;16.56;67.28
62703;BME280;66022;50.448;18.122;2023-05-14T17:48:11;98932.98;;;16.45;70.40
62703;BME280;66022;50.448;18.122;2023-05-14T17:52:23;98942.61;;;16.38;65.75
62703;BME280;66022;50.448;18.122;2023-05-14T17:56:35;98954.21;;;16.27;76.22
62703;BME280;66022;50.448;18.122;2023-05-14T18:00:47;98957.44;;;16.19;69.29
62703;BME280;66022;50.448;18.122;2023-05-14T18:04:59;98958.29;;;16.11;70.81
62703;BME280;66022;50.448;18.122;2023-05-14T18:09:11;98960.25;;;16.00;75.48
62703;BME280;66022;50.448;18.122;2023-05-14T18:13:23;98961.30;;;15.91;75.29
62703;BME280;66022;50.448;18.122;2023-05-14T18:17:35;98959.27;;;15.79;79.42
62703;BME280;66022;50.448;18.122;2023-05-14T18:21:47;98955.92;;;15.68;78.03
62703;BME280;66022;50.448;18.122;2023-05-14T18:25:59;98953.08;;;15.59;76.03
62703;BME280;66022;50.448;18.122;2023-05-14T18:30:11;98951.51;;;15.51;78.44
62703;BME280;66022;50.448;18.122;2023-05-14T18:34:23;98948.52;;;15.44;78.55
62703;BME280;66022;50.448;18.122;2023-05-14T18:38:35;98946.14;;;15.34;80.36
62703;BME280;66022;50.448;18.122;2023-05-14T18:42:47;98948.36;;;15.26;78.15
62703;BME280;66022;50.448;18.122;2023-05-14T18:46:59;98957.76;;;15.18;86.31
62703;BME280;66022;50.448;18.122;2023-05-14T18:51:11;98971.11;;;15.13;77.51
62703;BME280;66022;50.448;18.122;2023-05-14T18:55:23;98983.39;;;15.07;76.32
62703;BME280;66022;50.448;18.122;2023-05-14T18:59:35;98994.62;;;15.00;77.91
62703;BME280;66022;50.448;18.122;2023-05-14T19:03:47;99004.69;;;14.94;77.22
62703;BME280;66022;50.448;18.122;2023-05-14T19:07:59;99012.11;;;14.87;82.05
62703;BME280;66022;50.448;18.122;2023-05-14T19:12:11;99015.64;;;14.82;79.18
62703;BME280;66022;50.448;18.122;2023-05-14T19:16:23;99018.28;;;14.76;88.93
62703;BME280;66022;50.448;18.122;2023-05-14T19:20:38;99020.68;;;14.71;80.88
62703;BME280;66022;50.448;18.122;2023-05-14T19:24:47;99022.09;;;14.65;79.36
62703;BME280;66022;50.448;18.122;2023-05-14T19:28:59;99021.78;;;14.59;81.71
62703;BME280;66022;50.448;18.122;2023-05-14T19:33:11;99022.20;;;14.57;79.67
62703;BME280;66022;50.448;18.122;2023-05-14T19:37:23;99020.84;;;14.54;85.86
62703;BME280;66022;50.448;18.122;2023-05-14T19:41:38;99017.79;;;14.53;81.30
62703;BME280;66022;50.448;18.122;2023-05-14T19:45:47;99014.90;;;14.51;82.20
62703;BME280;66022;50.448;18.122;2023-05-14T19:49:59;99011.77;;;14.47;88.25
62703;BME280;66022;50.448;18.122;2023-05-14T19:54:11;99008.95;;;14.44;87.11
62703;BME280;66022;50.448;18.122;2023-05-14T19:58:23;99007.90;;;14.40;89.46
62703;BME280;66022;50.448;18.122;2023-05-14T20:02:35;99006.81;;;14.38;87.03
62703;BME280;66022;50.448;18.122;2023-05-14T20:06:47;99005.29;;;14.32;98.90
62703;BME280;66022;50.448;18.122;2023-05-14T20:10:59;99004.19;;;14.30;88.76
62703;BME280;66022;50.448;18.122;2023-05-14T20:15:11;99002.35;;;14.27;87.88
62703;BME280;66022;50.448;18.122;2023-05-14T20:19:23;99000.20;;;14.25;88.51
62703;BME280;66022;50.448;18.122;2023-05-14T20:23:35;98997.60;;;14.24;87.54
62703;BME280;66022;50.448;18.122;2023-05-14T20:27:47;98993.73;;;14.22;89.42
62703;BME280;66022;50.448;18.122;2023-05-14T20:31:59;98989.29;;;14.20;86.07
62703;BME280;66022;50.448;18.122;2023-05-14T20:36:11;98985.11;;;14.17;85.61
62703;BME280;66022;50.448;18.122;2023-05-14T20:40:23;98979.68;;;14.14;86.05
62703;BME280;66022;50.448;18.122;2023-05-14T20:44:35;98976.31;;;14.09;85.30
62703;BME280;66022;50.448;18.122;2023-05-14T20:48:47;98971.17;;;14.01;87.32
62703;BME280;66022;50.448;18.122;2023-05-14T20:52:59;98965.19;;;13.95;86.82
62703;BME280;66022;50.448;18.122;2023-05-14T20:57:11;98959.75;;;13.86;92.66
62703;BME280;66022;50.448;18.122;2023-05-14T21:01:23;98954.00;;;13.80;88.88
62703;BME280;66022;50.448;18.122;2023-05-14T21:05:35;98945.06;;;13.74;86.89
62703;BME280;66022;50.448;18.122;2023-05-14T21:09:47;98934.15;;;13.68;88.35
62703;BME280;66022;50.448;18.122;2023-05-14T21:13:59;98924.26;;;13.65;87.93
62703;BME280;66022;50.448;18.122;2023-05-14T21:18:11;98913.55;;;13.60;90.75
62703;BME280;66022;50.448;18.122;2023-05-14T21:22:23;98901.44;;;13.56;89.01
62703;BME280;66022;50.448;18.122;2023-05-14T21:26:35;98887.13;;;13.49;100.00
62703;BME280;66022;50.448;18.122;2023-05-14T21:30:48;98874.18;;;13.46;90.73
62703;BME280;66022;50.448;18.122;2023-05-14T21:34:59;98863.92;;;13.43;90.49
62703;BME280;66022;50.448;18.122;2023-05-14T21:39:11;98853.94;;;13.39;92.67
62703;BME280;66022;50.448;18.122;2023-05-14T21:43:23;98841.85;;;13.38;91.02
62703;BME280;66022;50.448;18.122;2023-05-14T21:47:35;98828.74;;;13.36;95.43
62703;BME280;66022;50.448;18.122;2023-05-14T21:51:47;98815.67;;;13.36;91.44
62703;BME280;66022;50.448;18.122;2023-05-14T21:55:59;98803.22;;;13.35;92.12
62703;BME280;66022;50.448;18.122;2023-05-14T22:00:11;98792.55;;;13.35;92.49
62703;BME280;66022;50.448;18.122;2023-05-14T22:04:23;98783.25;;;13.33;90.94
62703;BME280;66022;50.448;18.122;2023-05-14T22:08:35;98774.66;;;13.29;93.22
62703;BME280;66022;50.448;18.122;2023-05-14T22:12:47;98767.13;;;13.28;92.38
62703;BME280;66022;50.448;18.122;2023-05-14T22:16:59;98759.27;;;13.24;100.00
62703;BME280;66022;50.448;18.122;2023-05-14T22:21:11;98752.40;;;13.22;92.27
62703;BME280;66022;50.448;18.122;2023-05-14T22:25:23;98746.69;;;13.20;93.66